Time;durP1;ratioP1;P1;durP2;ratioP2;P2;SDS_P1;SDS_P2;PMS_P1;PMS_P2;Temp;Humidity;BMP_temperature;BMP_pressure;BME280_temperature;BME280_humidity;BME280_pressure;Samples;Min_cycle;Max_cycle;Signal;HPM_P1;HPM_P2
2022/10/23 00:01:55;;;;;;;11.63;8.37;;;13.10;99.90;;;;;;5058433;28;20494;-79
2022/10/23 00:04:25;;;;;;;13.67;9.57;;;13.30;99.90;;;;;;5057263;28;20434;-79
2022/10/23 00:06:52;;;;;;;11.70;9.50;;;13.10;99.90;;;;;;5057002;28;20512;-80
2022/10/23 00:09:21;;;;;;;19.13;11.33;;;12.60;99.90;;;;;;5056710;28;20485;-80
2022/10/23 00:11:49;;;;;;;13.27;11.27;;;13.30;99.90;;;;;;5056171;28;20793;-79
2022/10/23 00:14:18;;;;;;;12.83;10.53;;;13.00;99.90;;;;;;5056339;28;20428;-79
2022/10/23 00:16:45;;;;;;;12.40;9.53;;;13.00;99.90;;;;;;5056342;28;20447;-79
2022/10/23 00:19:15;;;;;;;11.47;10.13;;;13.00;99.90;;;;;;5055686;28;20936;-79
2022/10/23 00:21:43;;;;;;;17.47;10.80;;;13.00;99.90;;;;;;5060236;28;20466;-80
2022/10/23 00:24:10;;;;;;;13.80;9.40;;;13.00;99.90;;;;;;5060121;28;20449;-81
2022/10/23 00:26:39;;;;;;;11.60;8.70;;;13.00;99.90;;;;;;5059397;28;20466;-79
2022/10/23 00:29:06;;;;;;;14.57;10.50;;;13.00;99.90;;;;;;5059960;28;20481;-79
2022/10/23 00:31:33;;;;;;;13.10;9.97;;;13.00;99.90;;;;;;5060573;28;20471;-79
2022/10/23 00:34:00;;;;;;;13.90;10.50;;;13.00;99.90;;;;;;5060206;28;20567;-79
2022/10/23 00:36:27;;;;;;;14.27;10.50;;;13.00;99.90;;;;;;5060304;28;20469;-79
2022/10/23 00:38:55;;;;;;;14.13;10.50;;;13.00;99.90;;;;;;5059783;28;20424;-79
2022/10/23 00:41:26;;;;;;;14.27;10.13;;;13.00;99.90;;;;;;5060266;28;20471;-79
2022/10/23 00:44:01;;;;;;;13.60;10.40;;;13.00;99.90;;;;;;5064611;28;20441;-79
2022/10/23 00:46:27;;;;;;;15.60;9.27;;;13.20;99.90;;;;;;5074959;28;20484;-79
2022/10/23 00:48:55;;;;;;;11.20;9.23;;;13.10;99.90;;;;;;5074367;28;20483;-79
2022/10/23 00:51:21;;;;;;;12.80;9.07;;;13.00;99.90;;;;;;5063199;28;20499;-79
2022/10/23 00:53:51;;;;;;;13.57;9.00;;;13.10;99.90;;;;;;5060528;28;20479;-79
2022/10/23 00:56:19;;;;;;;12.73;9.50;;;13.10;99.90;;;;;;5059820;28;20542;-79
2022/10/23 00:58:46;;;;;;;20.37;11.70;;;13.10;99.90;;;;;;5059817;28;20453;-79
2022/10/23 01:01:17;;;;;;;12.53;9.10;;;13.20;99.90;;;;;;5060081;28;20514;-79
2022/10/23 01:03:44;;;;;;;17.00;9.43;;;13.20;99.90;;;;;;5059209;28;20528;-79
2022/10/23 01:06:18;;;;;;;13.80;9.83;;;13.20;99.90;;;;;;5059857;28;20473;-79
2022/10/23 01:08:51;;;;;;;10.07;8.90;;;13.20;99.90;;;;;;5059153;28;20772;-79
2022/10/23 01:11:25;;;;;;;10.57;7.13;;;13.20;99.90;;;;;;5059454;28;20433;-80
2022/10/23 01:14:01;;;;;;;11.57;8.57;;;12.80;99.90;;;;;;5058947;28;20476;-79
2022/10/23 01:16:37;;;;;;;13.23;8.77;;;13.20;99.90;;;;;;5058542;28;20469;-79
2022/10/23 01:19:12;;;;;;;13.10;10.00;;;13.20;99.90;;;;;;5058495;28;20505;-79
2022/10/23 01:21:49;;;;;;;11.80;9.97;;;13.20;99.90;;;;;;5059229;28;20483;-79
2022/10/23 01:24:29;;;;;;;14.23;8.83;;;13.10;99.90;;;;;;5059075;28;20831;-79
2022/10/23 01:27:15;;;;;;;12.70;8.60;;;13.20;99.90;;;;;;5062241;28;20469;-79
2022/10/23 01:29:46;;;;;;;12.40;10.50;;;13.20;99.90;;;;;;5067105;28;20448;-79
2022/10/23 01:32:17;;;;;;;9.87;8.90;;;13.20;99.90;;;;;;5060213;28;20435;-79
2022/10/23 01:34:48;;;;;;;13.40;9.13;;;13.20;99.90;;;;;;5060139;28;20466;-79
2022/10/23 01:37:23;;;;;;;13.60;9.40;;;13.20;99.90;;;;;;5060740;28;20461;-79
2022/10/23 01:39:54;;;;;;;13.00;8.90;;;13.20;99.90;;;;;;5058061;28;20452;-79
2022/10/23 01:42:27;;;;;;;8.93;8.03;;;13.10;99.90;;;;;;5058015;28;20408;-79
2022/10/23 01:44:59;;;;;;;14.70;9.37;;;13.10;99.90;;;;;;5057723;28;20442;-79
2022/10/23 01:47:30;;;;;;;10.23;8.37;;;12.70;99.90;;;;;;5057839;28;20520;-79
2022/10/23 01:49:58;;;;;;;11.37;9.67;;;13.00;99.90;;;;;;5058370;28;20535;-79
2022/10/23 01:52:25;;;;;;;10.40;7.50;;;13.00;99.90;;;;;;5057125;28;20496;-79
2022/10/23 01:54:54;;;;;;;9.73;7.87;;;12.90;99.90;;;;;;5058087;28;20812;-79
2022/10/23 01:57:25;;;;;;;8.70;7.80;;;13.00;99.90;;;;;;5057942;28;20975;-79
2022/10/23 01:59:56;;;;;;;9.60;8.23;;;13.20;99.90;;;;;;5057948;28;20400;-79
2022/10/23 02:02:24;;;;;;;13.60;8.03;;;12.80;99.90;;;;;;5057844;28;20409;-79
2022/10/23 02:04:58;;;;;;;9.67;8.33;;;12.80;99.90;;;;;;5057664;28;20461;-80
2022/10/23 02:07:25;;;;;;;18.10;8.67;;;12.80;99.90;;;;;;5057542;28;20465;-80
2022/10/23 02:09:52;;;;;;;13.27;8.67;;;12.80;99.90;;;;;;5057862;28;20481;-80
2022/10/23 02:12:30;;;;;;;10.13;7.73;;;12.50;99.90;;;;;;5057377;28;20445;-79
2022/10/23 02:15:02;;;;;;;9.40;8.50;;;12.80;99.90;;;;;;5058538;28;20456;-80
2022/10/23 02:17:38;;;;;;;11.43;8.73;;;12.40;99.90;;;;;;5057801;28;20494;-79
2022/10/23 02:20:16;;;;;;;11.47;8.47;;;12.80;99.90;;;;;;5057520;28;20456;-79
2022/10/23 02:22:48;;;;;;;9.33;8.37;;;12.90;99.90;;;;;;5057207;28;20433;-80
2022/10/23 02:25:19;;;;;;;15.63;8.87;;;13.20;99.90;;;;;;5056663;28;20404;-78
2022/10/23 02:27:52;;;;;;;11.07;7.67;;;12.90;99.90;;;;;;5056896;28;20481;-78
2022/10/23 02:30:20;;;;;;;11.67;9.00;;;12.90;99.90;;;;;;5057085;28;20440;-80
2022/10/23 02:32:48;;;;;;;9.30;8.40;;;13.00;99.90;;;;;;5056536;28;20923;-80
2022/10/23 02:35:16;;;;;;;12.23;8.03;;;13.00;99.90;;;;;;5056889;28;20519;-80
2022/10/23 02:37:43;;;;;;;9.87;8.37;;;13.00;99.90;;;;;;5058228;28;20455;-80
2022/10/23 02:40:11;;;;;;;10.90;8.63;;;12.90;99.90;;;;;;5057563;28;20500;-79
2022/10/23 02:42:43;;;;;;;9.93;8.50;;;12.90;99.90;;;;;;5057378;28;20445;-80
2022/10/23 02:45:17;;;;;;;13.13;8.20;;;12.90;99.90;;;;;;5057406;28;20426;-80
2022/10/23 02:47:52;;;;;;;14.30;9.43;;;12.90;99.90;;;;;;5057550;28;20519;-79
2022/10/23 02:50:28;;;;;;;12.87;8.50;;;12.90;99.90;;;;;;5063461;28;21028;-80
2022/10/23 02:53:03;;;;;;;8.57;7.77;;;12.90;99.90;;;;;;5059388;28;20842;-80
2022/10/23 02:55:42;;;;;;;9.43;8.50;;;12.80;99.90;;;;;;5059169;28;20431;-80
2022/10/23 02:58:15;;;;;;;14.77;7.53;;;12.80;99.90;;;;;;5058204;28;20482;-79
2022/10/23 03:00:49;;;;;;;11.70;8.60;;;12.90;99.90;;;;;;5057921;28;20429;-79
2022/10/23 03:03:19;;;;;;;10.37;8.30;;;12.70;99.90;;;;;;5057856;28;20392;-80
2022/10/23 03:05:46;;;;;;;11.77;7.93;;;12.40;99.90;;;;;;5057265;28;20437;-80
2022/10/23 03:08:14;;;;;;;10.03;7.53;;;12.80;99.90;;;;;;5057133;28;20493;-79
2022/10/23 03:10:41;;;;;;;14.53;8.33;;;13.00;99.90;;;;;;5056530;28;20464;-79
2022/10/23 03:13:09;;;;;;;13.17;8.10;;;12.60;99.90;;;;;;5057053;28;20417;-80
2022/10/23 03:15:36;;;;;;;12.50;7.67;;;12.50;99.90;;;;;;5056820;28;20495;-80
2022/10/23 03:18:04;;;;;;;10.70;7.60;;;12.60;99.90;;;;;;5056751;28;20524;-79
2022/10/23 03:20:31;;;;;;;7.80;7.00;;;12.60;99.90;;;;;;5056867;28;20441;-79
2022/10/23 03:22:57;;;;;;;14.30;8.30;;;12.60;99.90;;;;;;5057190;28;20464;-79
2022/10/23 03:25:24;;;;;;;10.70;8.10;;;;;;;;;;5056344;28;20826;-79
2022/10/23 03:27:51;;;;;;;10.50;7.10;;;12.80;99.90;;;;;;5056517;28;20498;-81
2022/10/23 03:30:18;;;;;;;9.77;7.20;;;12.70;99.90;;;;;;5056368;28;20485;-80
2022/10/23 03:32:45;;;;;;;13.43;8.00;;;12.70;99.90;;;;;;5056607;28;20468;-79
2022/10/23 03:35:13;;;;;;;10.07;7.63;;;12.80;99.90;;;;;;5057023;28;20420;-79
2022/10/23 03:37:39;;;;;;;7.90;6.87;;;12.90;99.90;;;;;;5061549;28;20470;-79
2022/10/23 03:40:07;;;;;;;8.70;7.67;;;12.80;99.90;;;;;;5066333;28;20442;-79
2022/10/23 03:42:34;;;;;;;9.80;7.53;;;12.70;99.90;;;;;;5060103;28;20872;-80
2022/10/23 03:45:00;;;;;;;11.77;7.10;;;12.70;99.90;;;;;;5056162;28;20864;-79
2022/10/23 03:47:29;;;;;;;12.80;8.23;;;12.60;99.90;;;;;;5056672;28;20476;-80
2022/10/23 03:49:55;;;;;;;15.30;8.87;;;12.50;99.90;;;;;;5056997;28;20448;-79
2022/10/23 03:52:23;;;;;;;16.30;9.50;;;12.40;99.90;;;;;;5062478;28;20419;-79
2022/10/23 03:54:50;;;;;;;11.33;8.70;;;12.40;99.90;;;;;;5060330;28;20437;-79
2022/10/23 03:57:17;;;;;;;9.60;8.50;;;12.40;99.90;;;;;;5058870;28;21049;-80
2022/10/23 03:59:43;;;;;;;14.37;10.10;;;12.40;99.90;;;;;;5057616;28;20512;-79
2022/10/23 04:02:10;;;;;;;11.60;9.10;;;12.40;99.90;;;;;;5054951;28;20826;-79
2022/10/23 04:04:37;;;;;;;13.67;9.20;;;12.40;99.90;;;;;;5055218;28;20450;-79
2022/10/23 04:07:03;;;;;;;11.50;8.47;;;12.30;99.90;;;;;;5055226;28;20496;-78
2022/10/23 04:09:31;;;;;;;14.80;8.00;;;12.30;99.90;;;;;;5055085;28;20452;-79
2022/10/23 04:11:58;;;;;;;11.90;8.53;;;12.30;99.90;;;;;;5057852;28;20847;-80
2022/10/23 04:14:26;;;;;;;13.30;9.93;;;12.30;99.90;;;;;;5060380;28;20445;-78
2022/10/23 04:16:52;;;;;;;12.40;9.03;;;12.20;99.90;;;;;;5060800;28;20444;-78
2022/10/23 04:19:19;;;;;;;12.63;8.57;;;12.20;99.90;;;;;;5060427;28;20456;-80
2022/10/23 04:21:46;;;;;;;14.10;10.13;;;12.20;99.90;;;;;;5059558;28;20446;-80
2022/10/23 04:24:12;;;;;;;15.07;10.93;;;12.00;99.90;;;;;;5059339;28;20464;-78
2022/10/23 04:26:40;;;;;;;17.90;12.40;;;12.00;99.90;;;;;;5059275;28;20448;-78
2022/10/23 04:29:07;;;;;;;17.67;10.60;;;12.10;99.90;;;;;;5055238;28;20445;-78
2022/10/23 04:31:34;;;;;;;20.20;12.90;;;12.00;99.90;;;;;;5055938;28;20467;-80
2022/10/23 04:34:00;;;;;;;17.50;11.13;;;11.90;99.90;;;;;;5056300;28;20446;-80
2022/10/23 04:36:27;;;;;;;18.73;11.90;;;11.90;99.90;;;;;;5055852;28;20469;-79
2022/10/23 04:38:54;;;;;;;15.63;10.87;;;11.80;99.90;;;;;;5056018;28;20497;-79
2022/10/23 04:41:20;;;;;;;14.73;11.00;;;11.80;99.90;;;;;;5056112;28;20421;-79
2022/10/23 04:43:48;;;;;;;18.63;10.47;;;11.70;99.90;;;;;;5059531;28;20445;-79
2022/10/23 04:46:15;;;;;;;19.17;12.03;;;11.70;99.90;;;;;;5058305;28;20469;-79
2022/10/23 04:48:42;;;;;;;18.10;11.07;;;11.60;99.90;;;;;;5057440;28;20864;-79
2022/10/23 04:51:10;;;;;;;15.13;11.43;;;11.60;99.90;;;;;;5056124;28;20539;-79
2022/10/23 04:53:37;;;;;;;15.67;10.30;;;11.60;99.90;;;;;;5055889;28;20936;-79
2022/10/23 04:56:04;;;;;;;12.80;10.07;;;11.70;99.90;;;;;;5055646;28;20485;-79
2022/10/23 04:58:31;;;;;;;11.93;8.63;;;11.30;99.90;;;;;;5059877;28;20820;-80
2022/10/23 05:00:59;;;;;;;15.70;8.70;;;11.70;99.90;;;;;;5071736;28;20442;-79
2022/10/23 05:03:27;;;;;;;14.03;9.43;;;11.60;99.90;;;;;;5071589;28;20412;-79
2022/10/23 05:05:55;;;;;;;14.57;9.70;;;11.90;99.90;;;;;;5055360;28;20450;-79
2022/10/23 05:08:22;;;;;;;11.23;8.97;;;11.60;99.90;;;;;;5059617;28;20523;-79
2022/10/23 05:10:49;;;;;;;11.20;9.30;;;11.60;99.90;;;;;;5060173;28;20520;-79
2022/10/23 05:13:18;;;;;;;16.23;9.57;;;11.40;99.90;;;;;;5059714;28;20445;-79
2022/10/23 05:15:45;;;;;;;11.97;8.57;;;11.70;99.90;;;;;;5058967;28;20454;-79
2022/10/23 05:18:18;;;;;;;13.00;9.00;;;11.60;99.90;;;;;;5058699;28;20480;-79
2022/10/23 05:20:47;;;;;;;14.17;9.27;;;11.60;99.90;;;;;;5058899;28;20509;-79
2022/10/23 05:23:16;;;;;;;11.83;7.97;;;11.60;99.90;;;;;;5058818;28;20815;-79
2022/10/23 05:25:42;;;;;;;14.30;10.23;;;11.00;99.90;;;;;;5058525;28;20472;-80
2022/10/23 05:28:09;;;;;;;19.07;9.17;;;11.70;99.90;;;;;;5058439;28;20523;-80
2022/10/23 05:30:37;;;;;;;19.93;9.30;;;11.20;99.90;;;;;;5058584;28;20824;-79
2022/10/23 05:33:04;;;;;;;14.37;9.60;;;11.50;99.90;;;;;;5058653;28;20449;-81
2022/10/23 05:35:32;;;;;;;13.23;9.83;;;11.50;99.90;;;;;;5058482;28;20495;-80
2022/10/23 05:37:59;;;;;;;14.90;10.20;;;11.50;99.90;;;;;;5058943;28;20502;-79
2022/10/23 05:40:26;;;;;;;13.80;9.10;;;11.50;99.90;;;;;;5058607;28;20839;-79
2022/10/23 05:42:53;;;;;;;13.07;9.97;;;11.50;99.90;;;;;;5058475;28;20454;-79
2022/10/23 05:45:20;;;;;;;18.50;10.40;;;11.50;99.90;;;;;;5058846;28;20449;-81
2022/10/23 05:47:48;;;;;;;14.40;9.90;;;11.50;99.90;;;;;;5058561;28;20540;-79
2022/10/23 05:50:14;;;;;;;15.97;9.60;;;11.60;99.90;;;;;;5058527;28;20476;-79
2022/10/23 05:52:45;;;;;;;13.27;9.30;;;11.60;99.90;;;;;;5058221;28;20474;-79
2022/10/23 05:55:12;;;;;;;16.30;9.87;;;11.50;99.90;;;;;;5058512;28;20426;-79
2022/10/23 05:57:38;;;;;;;17.90;10.50;;;11.40;99.90;;;;;;5057471;28;20481;-79
2022/10/23 06:00:09;;;;;;;15.37;9.80;;;11.50;99.90;;;;;;5057770;28;20442;-79
2022/10/23 06:02:36;;;;;;;22.47;10.27;;;11.50;99.90;;;;;;5058041;28;20430;-79
2022/10/23 06:05:02;;;;;;;15.20;9.93;;;11.40;99.90;;;;;;5058111;28;20947;-79
2022/10/23 06:07:30;;;;;;;12.60;10.27;;;11.40;99.90;;;;;;5058238;28;20995;-79
2022/10/23 06:09:58;;;;;;;11.70;9.27;;;11.30;99.90;;;;;;5058626;28;20424;-79
2022/10/23 06:12:25;;;;;;;15.83;10.77;;;11.30;99.90;;;;;;5058305;28;20456;-79
2022/10/23 06:14:52;;;;;;;15.23;10.67;;;11.50;99.90;;;;;;5059813;28;20450;-80
2022/10/23 06:17:18;;;;;;;12.70;9.93;;;11.40;99.90;;;;;;5069594;28;20519;-80
2022/10/23 06:19:45;;;;;;;14.77;10.93;;;11.20;99.90;;;;;;5065439;28;20879;-79
2022/10/23 06:22:12;;;;;;;15.13;11.30;;;11.50;99.90;;;;;;5060096;28;20511;-80
2022/10/23 06:24:38;;;;;;;13.43;10.70;;;11.20;99.90;;;;;;5058786;28;20461;-80
2022/10/23 06:27:06;;;;;;;16.43;11.37;;;11.30;99.90;;;;;;5058089;28;20469;-79
2022/10/23 06:29:33;;;;;;;15.20;11.60;;;11.30;99.90;;;;;;5059288;28;20425;-79
2022/10/23 06:32:00;;;;;;;15.20;11.70;;;11.30;99.90;;;;;;5066602;28;20530;-79
2022/10/23 06:34:26;;;;;;;20.83;11.10;;;11.30;99.90;;;;;;5060727;28;20487;-79
2022/10/23 06:36:53;;;;;;;14.57;11.43;;;11.30;99.90;;;;;;5062878;28;20469;-79
2022/10/23 06:39:21;;;;;;;15.00;10.63;;;11.30;99.90;;;;;;5063163;28;20475;-79
2022/10/23 06:41:47;;;;;;;15.87;11.17;;;11.30;99.90;;;;;;5074061;28;20938;-79
2022/10/23 06:44:15;;;;;;;18.50;12.07;;;11.30;99.90;;;;;;5061331;28;20499;-79
2022/10/23 06:46:45;;;;;;;18.30;13.10;;;11.40;99.90;;;;;;5057429;28;20974;-79
2022/10/23 06:49:13;;;;;;;13.77;12.03;;;11.50;99.90;;;;;;5060357;28;20412;-79
2022/10/23 06:51:39;;;;;;;16.23;12.83;;;11.50;99.90;;;;;;5074451;28;20456;-79
2022/10/23 06:54:06;;;;;;;17.30;11.97;;;11.60;99.90;;;;;;5070328;28;20468;-78
2022/10/23 06:56:34;;;;;;;19.10;14.33;;;11.60;99.90;;;;;;5061616;28;21003;-78
2022/10/23 06:59:01;;;;;;;13.73;11.10;;;11.60;99.90;;;;;;5063906;28;20449;-78
2022/10/23 07:01:29;;;;;;;14.10;11.97;;;11.70;99.90;;;;;;5063802;28;20511;-78
2022/10/23 07:03:55;;;;;;;12.40;10.47;;;11.70;99.90;;;;;;5059029;28;20453;-78
2022/10/23 07:06:22;;;;;;;18.37;12.10;;;11.80;99.90;;;;;;5060117;28;20531;-78
2022/10/23 07:08:49;;;;;;;18.70;12.80;;;11.50;99.90;;;;;;5057157;28;20958;-80
2022/10/23 07:11:15;;;;;;;12.37;10.83;;;11.80;99.90;;;;;;5057871;28;20810;-80
2022/10/23 07:13:43;;;;;;;15.40;11.80;;;11.80;99.90;;;;;;5058164;28;20421;-80
2022/10/23 07:16:12;;;;;;;15.33;11.43;;;11.80;99.90;;;;;;5059394;28;20607;-79
2022/10/23 07:18:40;;;;;;;16.90;12.33;;;11.50;99.90;;;;;;5058839;28;20434;-79
2022/10/23 07:21:08;;;;;;;15.33;12.10;;;11.80;99.90;;;;;;5061370;28;20445;-79
2022/10/23 07:23:36;;;;;;;16.07;14.30;;;11.80;99.90;;;;;;5058926;28;20641;-80
2022/10/23 07:26:05;;;;;;;19.00;12.60;;;11.90;99.90;;;;;;5057544;28;20485;-79
2022/10/23 07:28:33;;;;;;;16.43;12.90;;;12.00;99.90;;;;;;5058706;28;20454;-79
2022/10/23 07:31:00;;;;;;;18.80;13.63;;;11.90;99.90;;;;;;5058153;28;20450;-80
2022/10/23 07:33:27;;;;;;;16.50;13.67;;;12.00;99.90;;;;;;5057301;28;20470;-79
2022/10/23 07:35:56;;;;;;;16.53;11.70;;;11.80;99.90;;;;;;5056912;28;20438;-79
2022/10/23 07:38:23;;;;;;;15.10;11.70;;;12.00;99.90;;;;;;5056456;28;20491;-79
2022/10/23 07:40:50;;;;;;;12.63;11.07;;;12.20;99.90;;;;;;5056810;28;20520;-80
2022/10/23 07:43:19;;;;;;;14.10;11.30;;;12.30;99.90;;;;;;5058243;28;20445;-80
2022/10/23 07:45:46;;;;;;;16.70;12.53;;;;;;;;;;5082552;22;21030;31
2022/10/23 07:48:20;;;;;;;14.80;11.50;;;12.40;99.90;;;;;;5017134;28;20727;-81
2022/10/23 07:50:54;;;;;;;14.77;9.80;;;;;;;;;;5018844;28;20422;-82
2022/10/23 07:53:25;;;;;;;11.57;9.23;;;12.50;99.90;;;;;;5019405;28;20439;-83
2022/10/23 07:55:53;;;;;;;10.97;9.73;;;;;;;;;;5020302;28;20450;-81
2022/10/23 07:58:20;;;;;;;10.47;9.43;;;;;;;;;;5021333;28;20450;-81
2022/10/23 08:00:51;;;;;;;13.27;10.13;;;12.40;99.90;;;;;;5066125;22;20580;-81
2022/10/23 08:03:19;;;;;;;13.43;11.10;;;12.70;99.90;;;;;;5067134;28;20437;-81
2022/10/23 08:05:45;;;;;;;16.17;10.30;;;12.80;99.90;;;;;;5075342;28;20405;-83
2022/10/23 08:08:13;;;;;;;16.67;12.23;;;12.60;99.90;;;;;;5075152;28;20438;-85
2022/10/23 08:25:30;;;;;;;12.57;9.47;;;13.10;99.90;;;;;;4979015;28;20430;-90
2022/10/23 08:39:20;;;;;;;12.57;8.20;;;13.40;99.90;;;;;;5018956;26;20894;-82
2022/10/23 08:41:49;;;;;;;10.50;8.47;;;13.40;99.90;;;;;;5041469;28;20453;-81
2022/10/23 08:44:22;;;;;;;9.53;8.13;;;13.50;99.90;;;;;;5044770;28;20446;-82
2022/10/23 08:46:57;;;;;;;12.13;8.50;;;13.50;99.90;;;;;;5044547;28;20422;-85
2022/10/23 08:49:35;;;;;;;9.80;7.20;;;13.60;99.90;;;;;;5044944;28;20470;-83
2022/10/23 08:52:11;;;;;;;8.30;7.50;;;13.70;99.90;;;;;;5044875;28;20452;-83
2022/10/23 08:54:46;;;;;;;10.23;7.87;;;13.70;99.90;;;;;;5072258;22;20505;-81
2022/10/23 08:57:15;;;;;;;9.00;8.10;;;14.00;99.90;;;;;;5042806;28;20442;-80
2022/10/23 08:59:47;;;;;;;11.77;7.43;;;13.80;99.90;;;;;;5048729;28;20443;-80
2022/10/23 09:02:20;;;;;;;11.50;7.00;;;13.90;99.90;;;;;;5048255;28;20426;-80
2022/10/23 09:04:49;;;;;;;8.97;7.13;;;14.00;99.90;;;;;;5041669;28;20458;-80
2022/10/23 09:07:28;;;;;;;10.40;7.10;;;14.10;99.90;;;;;;5040719;28;20596;-80
2022/10/23 09:10:07;;;;;;;11.53;6.77;;;14.10;99.90;;;;;;5038219;28;20463;-80
2022/10/23 09:12:33;;;;;;;8.57;6.33;;;14.20;99.90;;;;;;5039381;28;20466;-79
2022/10/23 09:15:13;;;;;;;9.97;6.87;;;14.30;99.90;;;;;;5041935;28;20466;-79
2022/10/23 09:17:42;;;;;;;5.70;5.20;;;14.30;99.90;;;;;;5044986;28;20410;-79
2022/10/23 09:20:17;;;;;;;8.43;6.63;;;14.40;99.90;;;;;;5048133;28;20451;-79
2022/10/23 09:22:45;;;;;;;10.23;6.33;;;14.50;99.90;;;;;;5045419;28;20427;-79
2022/10/23 09:25:19;;;;;;;9.07;6.53;;;14.50;99.90;;;;;;5037808;28;20471;-79
2022/10/23 09:27:51;;;;;;;6.13;5.60;;;14.60;99.90;;;;;;5039474;28;20903;-79
2022/10/23 09:30:33;;;;;;;7.90;6.33;;;14.70;99.90;;;;;;5035860;28;20433;-80
2022/10/23 09:33:03;;;;;;;10.30;6.20;;;15.20;99.90;;;;;;5036603;28;20864;-79
2022/10/23 09:35:30;;;;;;;6.03;5.47;;;14.80;99.90;;;;;;5038719;28;20427;-79
2022/10/23 09:37:57;;;;;;;9.83;7.27;;;15.10;99.90;;;;;;5037559;28;20504;-78
2022/10/23 09:40:32;;;;;;;6.80;5.83;;;15.00;99.90;;;;;;5036746;28;20451;-80
2022/10/23 09:43:02;;;;;;;10.10;5.00;;;15.10;99.90;;;;;;5038079;28;20437;-79
2022/10/23 09:45:33;;;;;;;8.23;5.70;;;15.10;99.90;;;;;;5039312;28;20458;-80
2022/10/23 09:48:12;;;;;;;8.30;5.43;;;15.20;99.90;;;;;;5043028;28;20473;-80
2022/10/23 09:50:47;;;;;;;8.23;5.70;;;15.20;99.90;;;;;;5038701;28;20439;-80
2022/10/23 09:53:16;;;;;;;8.67;6.20;;;15.30;99.90;;;;;;5036711;28;20515;-80
2022/10/23 09:55:52;;;;;;;6.73;4.23;;;15.50;99.90;;;;;;5038849;28;20829;-80
2022/10/23 09:58:21;;;;;;;6.80;4.50;;;15.40;99.90;;;;;;5038545;28;21004;-80
2022/10/23 10:00:48;;;;;;;6.90;5.20;;;15.60;99.90;;;;;;5038455;28;20483;-80
2022/10/23 10:03:20;;;;;;;6.10;5.60;;;15.50;99.90;;;;;;5037820;28;20467;-79
2022/10/23 10:05:54;;;;;;;12.70;5.13;;;15.30;99.90;;;;;;5041389;28;20431;-80
2022/10/23 10:08:26;;;;;;;7.27;5.80;;;15.60;99.90;;;;;;5037689;28;20430;-80
2022/10/23 10:10:58;;;;;;;6.03;5.03;;;15.60;99.90;;;;;;5038770;28;20439;-79
2022/10/23 10:13:45;;;;;;;7.17;5.80;;;15.60;99.90;;;;;;5040408;28;20940;-80
2022/10/23 10:16:20;;;;;;;6.73;5.70;;;15.70;99.90;;;;;;5040236;28;20932;-79
2022/10/23 10:18:52;;;;;;;10.07;5.17;;;16.20;99.90;;;;;;5038784;28;20847;-79
2022/10/23 10:21:24;;;;;;;6.57;6.00;;;15.80;99.90;;;;;;5038237;28;20863;-80
2022/10/23 10:23:59;;;;;;;8.47;5.90;;;15.90;99.90;;;;;;5037331;28;20473;-80
2022/10/23 10:26:37;;;;;;;12.13;6.30;;;15.90;99.90;;;;;;5038341;28;20443;-80
2022/10/23 10:29:16;;;;;;;5.57;5.00;;;16.00;99.90;;;;;;5038022;28;20480;-80
2022/10/23 10:31:53;;;;;;;9.00;6.30;;;16.00;99.90;;;;;;5038042;28;20435;-80
2022/10/23 10:34:28;;;;;;;6.90;6.20;;;16.20;99.90;;;;;;5037996;28;20474;-80
2022/10/23 10:36:57;;;;;;;6.87;5.87;;;16.10;99.90;;;;;;5040700;28;20430;-79
2022/10/23 10:39:39;;;;;;;6.43;5.77;;;16.20;99.90;;;;;;5037858;28;20573;-79
2022/10/23 10:42:24;;;;;;;10.70;6.10;;;16.30;99.90;;;;;;5037172;28;20971;-79
2022/10/23 10:45:03;;;;;;;7.53;6.37;;;16.30;99.90;;;;;;5039246;28;21000;-80
2022/10/23 10:47:36;;;;;;;10.03;7.30;;;16.40;99.90;;;;;;5037374;28;20416;-80
2022/10/23 10:50:08;;;;;;;11.83;7.67;;;16.40;99.90;;;;;;5037221;28;20434;-80
2022/10/23 10:52:45;;;;;;;11.87;7.37;;;16.50;99.90;;;;;;5038782;28;20466;-80
2022/10/23 11:02:12;;;;;;;9.87;7.87;;;16.70;99.90;;;;;;5026183;28;20444;-79
2022/10/23 11:04:57;;;;;;;13.77;12.00;;;16.70;99.90;;;;;;5039626;28;20525;-80
2022/10/23 11:07:34;;;;;;;10.60;8.00;;;16.80;99.90;;;;;;5049650;28;20439;-80
2022/10/23 11:10:20;;;;;;;13.37;6.60;;;16.90;99.90;;;;;;5045476;28;20453;-80
2022/10/23 11:12:48;;;;;;;7.13;6.47;;;17.00;99.90;;;;;;5038601;28;20466;-80
2022/10/23 11:15:17;;;;;;;9.77;5.63;;;17.00;99.90;;;;;;5039371;28;20450;-81
2022/10/23 11:18:48;;;;;;;6.43;5.17;;;17.10;99.90;;;;;;5040805;28;20451;-81
2022/10/23 11:21:30;;;;;;;6.03;5.40;;;17.30;99.90;;;;;;5023209;28;20961;-85
2022/10/23 11:24:32;;;;;;;10.13;5.80;;;17.30;99.90;;;;;;5043621;28;20462;-84
2022/10/23 11:27:13;;;;;;;5.80;5.20;;;17.40;99.90;;;;;;5043181;28;20430;-84
2022/10/23 11:30:01;;;;;;;7.87;5.20;;;17.60;99.90;;;;;;5042562;28;20425;-84
2022/10/23 11:32:40;;;;;;;8.07;5.70;;;17.60;99.90;;;;;;5042258;28;20449;-84
2022/10/23 11:35:20;;;;;;;7.30;5.37;;;17.70;99.90;;;;;;5042681;28;20987;-83
2022/10/23 11:37:59;;;;;;;6.57;5.87;;;17.80;99.90;;;;;;5042692;28;20498;-84
2022/10/23 11:43:50;;;;;;;6.00;5.40;;;17.90;99.90;;;;;;5024317;28;20550;-84
2022/10/23 11:46:33;;;;;;;5.90;4.93;;;18.20;99.90;;;;;;5042053;28;20422;-84
2022/10/23 11:49:02;;;;;;;4.50;4.10;;;17.90;99.90;;;;;;5042003;28;20463;-84
2022/10/23 11:51:30;;;;;;;9.47;4.10;;;17.80;99.90;;;;;;5044777;28;20458;-84
2022/10/23 11:54:23;;;;;;;6.67;4.83;;;17.80;99.90;;;;;;5044224;28;20486;-85
2022/10/23 11:56:56;;;;;;;3.77;3.47;;;17.80;99.90;;;;;;5044344;28;20434;-84
2022/10/23 11:59:28;;;;;;;5.87;5.10;;;17.80;99.90;;;;;;5043535;28;20458;-84
2022/10/23 12:01:57;;;;;;;11.70;5.83;;;17.90;99.90;;;;;;5042632;28;20442;-83
2022/10/23 12:04:28;;;;;;;8.57;5.00;;;18.20;99.90;;;;;;5043470;28;20462;-84
2022/10/23 12:06:59;;;;;;;7.00;3.30;;;17.90;99.90;;;;;;5043037;28;20427;-84
2022/10/23 12:09:34;;;;;;;11.20;8.20;;;17.90;99.90;;;;;;5042466;28;20431;-84
2022/10/23 12:12:12;;;;;;;6.70;5.23;;;17.80;99.90;;;;;;5046331;28;20441;-84
2022/10/23 12:14:41;;;;;;;13.80;5.30;;;18.00;99.90;;;;;;5046512;28;20454;-84
2022/10/23 12:17:35;;;;;;;4.23;3.20;;;18.00;99.90;;;;;;5045111;28;20442;-85
2022/10/23 12:20:19;;;;;;;12.27;4.23;;;18.10;99.90;;;;;;5050817;28;20435;-84
2022/10/23 12:22:52;;;;;;;3.97;3.63;;;18.00;99.90;;;;;;5047357;28;20449;-83
2022/10/23 12:25:26;;;;;;;4.30;3.27;;;18.00;99.90;;;;;;5048848;28;20427;-85
2022/10/23 12:27:58;;;;;;;4.63;2.80;;;18.00;99.90;;;;;;5047544;28;20427;-85
2022/10/23 12:30:35;;;;;;;5.00;3.40;;;17.90;99.90;;;;;;5048502;28;20446;-84
2022/10/23 12:33:16;;;;;;;5.17;3.70;;;18.10;99.90;;;;;;5048618;28;20541;-84
2022/10/23 12:36:11;;;;;;;6.60;3.50;;;17.90;99.90;;;;;;5048819;28;20434;-84
2022/10/23 12:38:43;;;;;;;5.30;2.90;;;18.20;99.90;;;;;;5046404;28;20955;-85
2022/10/23 12:41:14;;;;;;;7.93;4.10;;;17.90;99.90;;;;;;5049476;28;20441;-84
2022/10/23 12:43:43;;;;;;;9.17;3.80;;;18.00;99.90;;;;;;5050219;28;20837;-84
2022/10/23 12:46:29;;;;;;;2.70;2.30;;;17.90;99.90;;;;;;5046781;28;20446;-83
2022/10/23 12:48:57;;;;;;;4.60;2.97;;;17.90;99.90;;;;;;5043167;28;20489;-84
2022/10/23 12:51:27;;;;;;;6.80;2.80;;;17.90;99.90;;;;;;5043852;28;20504;-83
2022/10/23 12:53:54;;;;;;;6.90;2.77;;;17.90;99.90;;;;;;5043712;28;20478;-83
2022/10/23 12:56:22;;;;;;;4.03;2.80;;;17.90;99.90;;;;;;5044991;28;20952;-84
2022/10/23 12:58:51;;;;;;;4.57;2.90;;;17.90;99.90;;;;;;5044600;28;20453;-84
2022/10/23 13:01:25;;;;;;;3.93;3.60;;;17.70;99.90;;;;;;5045777;28;20517;-83
2022/10/23 13:03:57;;;;;;;3.73;2.60;;;18.00;99.90;;;;;;5043405;28;20565;-84
2022/10/23 13:06:24;;;;;;;4.37;3.10;;;;;;;;;;5045727;28;20455;-84
2022/10/23 13:08:51;;;;;;;3.57;3.27;;;18.10;99.90;;;;;;5046887;28;20863;-84
2022/10/23 13:11:19;;;;;;;5.23;3.13;;;18.10;99.90;;;;;;5048351;28;20461;-83
2022/10/23 13:13:48;;;;;;;4.07;2.40;;;18.10;99.90;;;;;;5048787;28;20485;-84
2022/10/23 13:16:16;;;;;;;4.87;2.70;;;18.00;99.90;;;;;;5047197;28;20533;-84
2022/10/23 13:18:43;;;;;;;3.90;3.17;;;17.90;99.90;;;;;;5045489;28;20446;-84
2022/10/23 13:21:17;;;;;;;3.00;2.70;;;17.90;99.90;;;;;;5045721;28;20971;-84
2022/10/23 13:23:44;;;;;;;5.23;2.70;;;17.90;99.90;;;;;;5046349;28;20458;-84
2022/10/23 13:26:33;;;;;;;5.53;3.13;;;17.90;99.90;;;;;;5045340;28;20447;-84
2022/10/23 13:29:03;;;;;;;8.10;3.50;;;18.10;99.90;;;;;;5044385;28;20786;-85
2022/10/23 13:31:32;;;;;;;5.73;3.30;;;17.80;99.90;;;;;;5047752;28;20435;-84
2022/10/23 13:34:21;;;;;;;4.30;3.03;;;17.90;99.90;;;;;;5055017;28;20499;-83
2022/10/23 13:36:54;;;;;;;4.53;3.47;;;18.30;99.90;;;;;;5053804;28;20478;-83